Mont Saint Michel — FNMT — position and weather

sailwx.info

Track history (hours):
 
Tides and Currents Weather Stations Pressure Air Temp Water Temp Dewpoint Dewpoint Depression Visibility Wind Speed Wind Dir Waves Ship Positions

Mont Saint Michel

Last reported at 2017-Oct-19 11:01 UTC. Time now 2017-Oct-19 11:11 UTC.
Position N 50°35' W 000°57'.

Length 173 m; beam 29 m.

Type: Ship. MMSI: 227023100.

Date/timePositionNaut miles runAvg speedWind from/ knotsBaromVisibWave heightAir tempDewpointWater temp
2017-Oct-19 11:01N 50°35' W 000°57'1020.5
2017-Oct-19 10:30N 50°25' W 000°51'1020.9
2017-Oct-19 10:01N 50°15' W 000°47'1020.2
2017-Oct-19 09:30N 50°06' W 000°40'1019.9
2017-Oct-19 09:00N 49°57' W 000°35'1020.0
2017-Oct-19 08:31N 49°47' W 000°30'1020.1
2017-Oct-19 08:00N 49°38' W 000°25'1020.0
2017-Oct-19 07:30N 49°29' W 000°19'1019.2
2017-Oct-19 07:00N 49°19' W 000°15'2 4.3
2017-Oct-19 06:30N 49°17' W 000°15'0 0.0
2017-Oct-19 06:00N 49°17' W 000°15'0 0.0
2017-Oct-19 05:30N 49°17' W 000°15'0 0.0
2017-Oct-19 05:00N 49°17' W 000°15'0 0.4
2017-Oct-19 04:30N 49°18' W 000°15'815.9
2017-Oct-19 04:00N 49°25' W 000°14'815.6
2017-Oct-19 03:31N 49°32' W 000°19'714.5
2017-Oct-19 03:00N 49°39' W 000°25'714.4
2017-Oct-19 02:31N 49°45' W 000°29'714.3
2017-Oct-19 02:00N 49°52' W 000°33'612.8
2017-Oct-19 01:30N 49°58' W 000°37'510.0
2017-Oct-19 01:00N 50°03' W 000°39'510.1
2017-Oct-19 00:30N 50°08' W 000°41'510.3
2017-Oct-19 00:00N 50°12' W 000°44'611.5
2017-Oct-18 23:30N 50°18' W 000°46'815.2
2017-Oct-18 23:00N 50°25' W 000°51'815.3
2017-Oct-18 22:30N 50°32' W 000°55'815.2
2017-Oct-18 22:00N 50°39' W 000°59'714.4
2017-Oct-18 21:31N 50°45' W 001°05'3 6.6
2017-Oct-18 21:00N 50°49' W 001°06'0 0.0
2017-Oct-18 20:30N 50°49' W 001°06'0 0.0
2017-Oct-18 20:01N 50°49' W 001°06'0 0.0
2017-Oct-18 19:30N 50°49' W 001°06'0 0.0
2017-Oct-18 19:00N 50°49' W 001°06'0 0.0
2017-Oct-18 18:31N 50°49' W 001°06'0 0.8
2017-Oct-18 18:00N 50°49' W 001°06'612.0
2017-Oct-18 17:31N 50°43' W 001°02'917.6
2017-Oct-18 17:01N 50°35' W 000°57'918.4
2017-Oct-18 16:30N 50°26' W 000°51'816.2
2017-Oct-18 16:01N 50°19' W 000°47'816.3
2017-Oct-18 15:30N 50°11' W 000°43'816.5
2017-Oct-18 15:01N 50°03' W 000°39'1716.9
2017-Oct-18 14:00N 49°48' W 000°30'917.1
2017-Oct-18 13:31N 49°40' W 000°25'1222.6
2017-Oct-18 13:00N 49°29' W 000°19'815.9
2017-Oct-18 12:30N 49°21' W 000°15'4 8.2
2017-Oct-18 12:00N 49°17' W 000°15'0 0.0
2017-Oct-18 11:30N 49°17' W 000°15'0 0.0
2017-Oct-18 11:00N 49°17' W 000°15'0 0.0
2017-Oct-18 10:30N 49°17' W 000°15'0 0.0
2017-Oct-18 10:00N 49°17' W 000°15'0 0.0
2017-Oct-18 09:30N 49°17' W 000°15'0 0.0
2017-Oct-18 09:00N 49°17' W 000°15'0 0.0
2017-Oct-18 08:30N 49°17' W 000°15'0 0.0
2017-Oct-18 08:00N 49°17' W 000°15'0 0.0
2017-Oct-18 07:30N 49°17' W 000°15'0 0.0
2017-Oct-18 07:00N 49°17' W 000°15'0 0.0
2017-Oct-18 06:30N 49°17' W 000°15'0 0.0
2017-Oct-18 06:00N 49°17' W 000°15'0 0.0
2017-Oct-18 05:30N 49°17' W 000°15'2 4.2
2017-Oct-18 05:00N 49°19' W 000°15'715.0
2017-Oct-18 04:30N 49°27' W 000°18'714.4
2017-Oct-18 04:01N 49°33' W 000°23'714.7
2017-Oct-18 03:30N 49°40' W 000°24'714.0
2017-Oct-18 03:00N 49°47' W 000°28'714.0
2017-Oct-18 02:30N 49°53' W 000°34'713.9
2017-Oct-18 02:00N 49°59' W 000°39'713.8
2017-Oct-18 01:30N 50°06' W 000°43'713.9
2017-Oct-18 01:00N 50°12' W 000°46'714.3
2017-Oct-18 00:30N 50°19' W 000°49'714.6
2017-Oct-18 00:00N 50°26' W 000°53'714.4
2017-Oct-17 23:30N 50°33' W 000°56'714.7
2017-Oct-17 23:00N 50°40' W 000°59'713.9
2017-Oct-17 22:30N 50°46' W 001°05'3 6.0
2017-Oct-17 22:00N 50°49' W 001°06'0 0.0
2017-Oct-17 21:30N 50°49' W 001°06'0 0.0
2017-Oct-17 21:00N 50°49' W 001°06'0 0.0
2017-Oct-17 20:30N 50°49' W 001°06'0 0.3
2017-Oct-17 20:00N 50°49' W 001°06'510.1
2017-Oct-17 19:31N 50°44' W 001°03'918.9
2017-Oct-17 19:01N 50°36' W 000°56'1019.2
2017-Oct-17 18:31N 50°27' W 000°50'1019.9
2017-Oct-17 18:00N 50°17' W 000°44'1019.3
2017-Oct-17 17:31N 50°08' W 000°40'1019.3
2017-Oct-17 17:00N 49°59' W 000°35'1019.6
2017-Oct-17 16:30N 49°50' W 000°32'1019.6
2017-Oct-17 16:01N 49°40' W 000°28'1019.7
2017-Oct-17 15:31N 49°31' W 000°22'1020.0
2017-Oct-17 15:01N 49°22' W 000°15'5 9.6
2017-Oct-17 14:30N 49°17' W 000°15'0 0.0
2017-Oct-17 14:00N 49°17' W 000°15'0 0.0
2017-Oct-17 13:30N 49°17' W 000°15'0 0.0
2017-Oct-17 13:00N 49°17' W 000°15'1 2.5
2017-Oct-17 12:30N 49°19' W 000°15'918.6
2017-Oct-17 12:00N 49°27' W 000°19'1019.9
2017-Oct-17 11:30N 49°36' W 000°26'1020.0
2017-Oct-17 11:01N 49°46' W 000°32'1020.0
2017-Oct-17 10:30N 49°55' W 000°37'1020.1
2017-Oct-17 10:00N 50°05' W 000°42'1120.2
2017-Oct-17 09:28N 50°15' W 000°47'920.3
2017-Oct-17 09:00N 50°24' W 000°51'1020.0
2017-Oct-17 08:30N 50°33' W 000°56'1019.1
2017-Oct-17 08:00N 50°42' W 001°01'714.0
2017-Oct-17 07:30N 50°49' W 001°07'1 1.3
2017-Oct-17 07:00N 50°49' W 001°06'0 0.0
2017-Oct-17 06:30N 50°49' W 001°06'0 0.0
2017-Oct-17 06:00N 50°49' W 001°06'1 1.0
2017-Oct-17 05:30N 50°49' W 001°07'612.9
2017-Oct-17 05:01N 50°43' W 001°01'917.6
2017-Oct-17 04:30N 50°35' W 000°55'918.5
2017-Oct-17 04:00N 50°26' W 000°50'611.8
2017-Oct-17 03:30N 50°21' W 000°47'510.2
2017-Oct-17 03:00N 50°16' W 000°47'510.4
2017-Oct-17 02:30N 50°11' W 000°46'510.5
2017-Oct-17 02:01N 50°06' W 000°44'510.8
2017-Oct-17 01:30N 50°00' W 000°42'611.0
2017-Oct-17 01:01N 49°55' W 000°40'611.2
2017-Oct-17 00:31N 49°50' W 000°37'611.3
2017-Oct-17 00:00N 49°44' W 000°36'611.6
2017-Oct-16 23:30N 49°39' W 000°31'611.8
2017-Oct-16 23:00N 49°34' W 000°26'611.7
2017-Oct-16 22:30N 49°29' W 000°21'612.0
2017-Oct-16 22:01N 49°24' W 000°17'611.8
2017-Oct-16 21:30N 49°18' W 000°15'1 1.9
2017-Oct-16 21:00N 49°17' W 000°15'0 0.0
2017-Oct-16 20:30N 49°17' W 000°15'0 0.0
2017-Oct-16 20:00N 49°17' W 000°15'0 0.0
2017-Oct-16 19:30N 49°17' W 000°15'4 7.8
2017-Oct-16 19:00N 49°21' W 000°14'1020.0
2017-Oct-16 18:31N 49°31' W 000°20'815.2
2017-Oct-16 18:00N 49°38' W 000°23'815.5
2017-Oct-16 17:30N 49°45' W 000°27'4319.0
2017-Oct-16 15:16N 50°25' W 000°51'520.1
2017-Oct-16 15:01N 50°30' W 000°54'1019.6
2017-Oct-16 14:31N 50°39' W 000°58'1110.6
2017-Oct-16 13:30N 50°49' W 001°06'0 0.0
2017-Oct-16 13:00N 50°49' W 001°06'0 0.0
2017-Oct-16 12:31N 50°49' W 001°06'0 0.2
2017-Oct-16 12:00N 50°49' W 001°06'5 9.3
2017-Oct-16 11:30N 50°44' W 001°04'918.1
2017-Oct-16 11:00N 50°36' W 000°58'1121.3
2017-Oct-16 10:30N 50°26' W 000°53'2221.8
2017-Oct-16 09:29N 50°05' W 000°40'1021.7
2017-Oct-16 09:00N 49°55' W 000°34'1121.4
2017-Oct-16 08:30N 49°45' W 000°29'1320.8
2017-Oct-16 07:54N 49°33' W 000°23'815.6
2017-Oct-16 07:24N 49°26' W 000°18'513.0
2017-Oct-16 07:00N 49°22' W 000°15'4 8.4
2017-Oct-16 06:30N 49°17' W 000°15'0 0.0
2017-Oct-16 06:00N 49°17' W 000°15'0 0.0
2017-Oct-16 05:30N 49°17' W 000°15'0 0.0
2017-Oct-16 05:00N 49°17' W 000°15'0 0.2
2017-Oct-16 04:30N 49°17' W 000°15'814.5
2017-Oct-16 03:57N 49°25' W 000°17'715.4
2017-Oct-16 03:30N 49°31' W 000°22'1114.8
2017-Oct-16 02:47N 49°41' W 000°27'414.5
2017-Oct-16 02:30N 49°45' W 000°29'1514.7
2017-Oct-16 01:28N 49°60' W 000°36'715.4
2017-Oct-16 00:59N 50°06' W 000°41'915.2
2017-Oct-16 00:22N 50°15' W 000°47'615.0
2017-Oct-15 23:58N 50°20' W 000°53'715.1
2017-Oct-15 23:31N 50°26' W 000°56'815.1
2017-Oct-15 23:01N 50°34' W 000°58'816.7
2017-Oct-15 22:31N 50°42' W 001°01'612.4
2017-Oct-15 22:00N 50°47' W 001°06'2 3.2
2017-Oct-15 21:31N 50°49' W 001°06'0 0.0
2017-Oct-15 21:01N 50°49' W 001°06'0 0.0
2017-Oct-15 20:30N 50°49' W 001°06'0 0.2
2017-Oct-15 20:01N 50°49' W 001°06'5 9.8
2017-Oct-15 19:30N 50°44' W 001°04'918.9
2017-Oct-15 19:00N 50°36' W 000°57'918.8
2017-Oct-15 18:30N 50°27' W 000°51'1019.1
2017-Oct-15 18:00N 50°18' W 000°46'918.8
2017-Oct-15 17:30N 50°09' W 000°42'918.7
2017-Oct-15 17:00N 49°60' W 000°37'918.4
2017-Oct-15 16:30N 49°52' W 000°31'918.6
2017-Oct-15 16:00N 49°43' W 000°27'1018.7
2017-Oct-15 15:30N 49°34' W 000°22'918.8
2017-Oct-15 15:00N 49°25' W 000°17'8 8.0
2017-Oct-15 14:00N 49°17' W 000°15'0 0.0
2017-Oct-15 13:30N 49°17' W 000°15'0 0.0
2017-Oct-15 13:00N 49°17' W 000°15'3 5.2
2017-Oct-15 12:30N 49°20' W 000°14'918.6
2017-Oct-15 12:00N 49°29' W 000°18'1019.5
2017-Oct-15 11:29N 49°38' W 000°25'1019.8
2017-Oct-15 11:00N 49°47' W 000°30'1019.6
2017-Oct-15 10:29N 49°56' W 000°36'1219.7
2017-Oct-15 09:52N 50°08' W 000°43'1220.1
2017-Oct-15 09:17N 50°19' W 000°48'520.3
2017-Oct-15 09:00N 50°24' W 000°51'1020.0
2017-Oct-15 08:30N 50°34' W 000°56'1019.3
2017-Oct-15 08:01N 50°43' W 001°02'713.1
2017-Oct-15 07:31N 50°48' W 001°07'1 1.5
2017-Oct-15 07:01N 50°49' W 001°06'0 0.0
2017-Oct-15 06:31N 50°49' W 001°06'0 0.0
2017-Oct-15 06:01N 50°49' W 001°06'0 0.7
2017-Oct-15 05:31N 50°49' W 001°06'612.5
2017-Oct-15 05:01N 50°43' W 001°02'917.1
2017-Oct-15 04:31N 50°36' W 000°55'510.4
2017-Oct-15 04:00N 50°31' W 000°51'510.4
2017-Oct-15 03:31N 50°26' W 000°48'611.3
2017-Oct-15 03:01N 50°21' W 000°46'611.2
2017-Oct-15 02:30N 50°16' W 000°43'611.2
2017-Oct-15 02:01N 50°10' W 000°40'711.4
2017-Oct-15 01:26N 50°04' W 000°37'511.2
2017-Oct-15 00:59N 49°59' W 000°35'611.2
2017-Oct-15 00:29N 49°54' W 000°32'511.1
2017-Oct-15 00:00N 49°49' W 000°29'511.0
2017-Oct-14 23:30N 49°44' W 000°27'911.1
2017-Oct-14 22:41N 49°35' W 000°22'411.1
2017-Oct-14 22:22N 49°32' W 000°21'411.7
2017-Oct-14 22:01N 49°28' W 000°18'611.4
2017-Oct-14 21:30N 49°23' W 000°15'510.4
2017-Oct-14 21:01N 49°17' W 000°15'0 0.0
2017-Oct-14 20:31N 49°17' W 000°15'0 0.0
2017-Oct-14 20:01N 49°17' W 000°15'0 0.0
2017-Oct-14 19:30N 49°17' W 000°15'3 5.6
2017-Oct-14 19:00N 49°20' W 000°14'918.1
2017-Oct-14 18:30N 49°29' W 000°17'918.5
2017-Oct-14 18:00N 49°38' W 000°22'919.0
2017-Oct-14 17:30N 49°46' W 000°28'918.8
2017-Oct-14 17:01N 49°55' W 000°33'919.0
2017-Oct-14 16:31N 50°04' W 000°38'918.8
2017-Oct-14 16:01N 50°13' W 000°42'918.6
2017-Oct-14 15:30N 50°22' W 000°46'918.5
2017-Oct-14 15:00N 50°31' W 000°51'918.8
2017-Oct-14 14:30N 50°39' W 000°58'816.7
2017-Oct-14 14:00N 50°46' W 001°05'3 5.3
2017-Oct-14 13:30N 50°49' W 001°06'0 0.0
2017-Oct-14 13:00N 50°49' W 001°06'0 0.0
2017-Oct-14 12:30N 50°49' W 001°06'0 0.8
2017-Oct-14 12:01N 50°49' W 001°06'612.5
2017-Oct-14 11:31N 50°43' W 001°01'917.5
2017-Oct-14 11:01N 50°35' W 000°57'1019.3
2017-Oct-14 10:30N 50°26' W 000°53'1018.9
2017-Oct-14 10:00N 50°17' W 000°48'3219.4
2017-Oct-14 08:20N 49°47' W 000°27'819.4
2017-Oct-14 07:57N 49°40' W 000°23'1119.2
2017-Oct-14 07:23N 49°30' W 000°18'719.2
2017-Oct-14 07:01N 49°23' W 000°16'611.2
2017-Oct-14 06:30N 49°17' W 000°15'0 0.0
2017-Oct-14 06:00N 49°17' W 000°15'0 0.0
2017-Oct-14 05:31N 49°17' W 000°15'0 0.0
2017-Oct-14 05:00N 49°17' W 000°15'0 0.2
2017-Oct-14 04:30N 49°17' W 000°15'814.0
2017-Oct-14 03:56N 49°25' W 000°17'715.1
2017-Oct-14 03:29N 49°32' W 000°21'714.5
2017-Oct-14 03:01N 49°38' W 000°25'1814.9
2017-Oct-14 01:47N 49°55' W 000°34'515.5
2017-Oct-14 01:29N 49°59' W 000°37'915.3
2017-Oct-14 00:56N 50°07' W 000°41'915.3
2017-Oct-14 00:22N 50°15' W 000°47'615.6
2017-Oct-14 00:00N 50°20' W 000°50'816.0
2017-Oct-13 23:30N 50°28' W 000°55'817.0
2017-Oct-13 23:01N 50°36' W 000°59'815.7
2017-Oct-13 22:31N 50°43' W 001°02'611.5
2017-Oct-13 22:00N 50°48' W 001°07'1 1.6
2017-Oct-13 21:30N 50°49' W 001°06'0 0.0
2017-Oct-13 21:01N 50°49' W 001°06'0 0.0
2017-Oct-13 20:30N 50°49' W 001°06'0 0.2
2017-Oct-13 20:00N 50°49' W 001°06'4 8.9
2017-Oct-13 19:31N 50°44' W 001°04'918.2
2017-Oct-13 19:01N 50°37' W 000°57'1019.5
2017-Oct-13 18:30N 50°27' W 000°51'2719.3
2017-Oct-13 17:06N 50°02' W 000°36'319.0
2017-Oct-13 16:56N 49°59' W 000°35'919.0
2017-Oct-13 16:29N 49°51' W 000°30'918.8
2017-Oct-13 16:00N 49°42' W 000°26'1018.9
2017-Oct-13 15:28N 49°33' W 000°21'918.8
2017-Oct-13 15:00N 49°25' W 000°17'714.6
2017-Oct-13 14:30N 49°17' W 000°15'0 0.1
2017-Oct-13 14:00N 49°17' W 000°15'0 0.0
2017-Oct-13 13:30N 49°17' W 000°15'0 0.0
2017-Oct-13 13:00N 49°17' W 000°15'3 5.7
2017-Oct-13 12:30N 49°20' W 000°14'1019.8
2017-Oct-13 12:01N 49°29' W 000°19'1019.2
2017-Oct-13 11:30N 49°39' W 000°25'1618.7
2017-Oct-13 10:39N 49°53' W 000°36'318.6
2017-Oct-13 10:29N 49°55' W 000°39'1020.2
2017-Oct-13 10:00N 50°04' W 000°46'1119.7
2017-Oct-13 09:27N 50°14' W 000°50'920.5
2017-Oct-13 08:59N 50°24' W 000°51'920.0
2017-Oct-13 08:31N 50°33' W 000°56'1019.4
2017-Oct-13 08:01N 50°42' W 001°01'714.5
2017-Oct-13 07:30N 50°48' W 001°07'1 1.8
2017-Oct-13 07:00N 50°49' W 001°06'0 0.0
2017-Oct-13 06:30N 50°49' W 001°06'0 0.0
2017-Oct-13 06:00N 50°49' W 001°06'0 0.3
2017-Oct-13 05:30N 50°49' W 001°06'510.4
2017-Oct-13 05:00N 50°44' W 001°03'918.5
2017-Oct-13 04:30N 50°36' W 000°56'815.9
2017-Oct-13 04:00N 50°29' W 000°51'4111.3
2017-Oct-13 00:21N 49°49' W 000°30'411.2
2017-Oct-12 23:59N 49°45' W 000°29'511.4
2017-Oct-12 23:30N 49°40' W 000°26'811.6
2017-Oct-12 22:50N 49°33' W 000°23'512.0
2017-Oct-12 22:23N 49°28' W 000°20'411.5
2017-Oct-12 22:00N 49°24' W 000°17'511.0
2017-Oct-12 21:31N 49°18' W 000°15'1 2.3
2017-Oct-12 21:00N 49°17' W 000°15'0 0.0
2017-Oct-12 20:30N 49°17' W 000°15'0 0.0
2017-Oct-12 20:01N 49°17' W 000°15'0 0.1
2017-Oct-12 19:30N 49°17' W 000°15'814.9
2017-Oct-12 19:00N 49°25' W 000°16'918.1
2017-Oct-12 18:30N 49°33' W 000°23'5218.5
2017-Oct-12 15:42N 50°22' W 000°46'419.4
2017-Oct-12 15:30N 50°26' W 000°48'1020.2
2017-Oct-12 15:00N 50°35' W 000°54'1019.1
2017-Oct-12 14:30N 50°43' W 001°03'612.1
2017-Oct-12 14:00N 50°49' W 001°06'0 0.7
2017-Oct-12 13:30N 50°49' W 001°06'0 0.0
2017-Oct-12 13:00N 50°49' W 001°06'0 0.0
2017-Oct-12 12:30N 50°49' W 001°06'1 1.6
2017-Oct-12 12:00N 50°48' W 001°07'713.8
2017-Oct-12 11:31N 50°43' W 000°60'918.3
2017-Oct-12 11:00N 50°34' W 000°55'5619.9
2017-Oct-12 08:12N 49°41' W 000°26'420.7
2017-Oct-12 08:00N 49°38' W 000°23'1020.3
2017-Oct-12 07:30N 49°28' W 000°19'919.3
2017-Oct-12 07:00N 49°19' W 000°15'2 3.4
2017-Oct-12 06:30N 49°17' W 000°15'0 0.0
2017-Oct-12 06:00N 49°17' W 000°15'0 0.0
2017-Oct-12 05:30N 49°17' W 000°15'0 0.0
2017-Oct-12 05:00N 49°17' W 000°15'0 0.3
2017-Oct-12 04:30N 49°17' W 000°15'815.1
2017-Oct-12 04:00N 49°25' W 000°17'1115.6
2017-Oct-12 03:17N 49°36' W 000°21'4213.1
2017-Oct-12 00:04N 50°15' W 000°45'213.8
2017-Oct-11 23:58N 50°16' W 000°46'613.9
2017-Oct-11 23:30N 50°22' W 000°48'815.0
2017-Oct-11 23:00N 50°29' W 000°54'714.4
2017-Oct-11 22:30N 50°36' W 000°57'713.8
2017-Oct-11 22:00N 50°43' W 000°59'612.1
2017-Oct-11 21:30N 50°47' W 001°06'2 4.0
2017-Oct-11 21:00N 50°49' W 001°06'0 0.0
2017-Oct-11 20:30N 50°49' W 001°06'0 0.0
2017-Oct-11 20:00N 50°49' W 001°06'0 0.0
2017-Oct-11 19:30N 50°49' W 001°06'0 0.0
2017-Oct-11 19:00N 50°49' W 001°06'0 0.0
2017-Oct-11 18:30N 50°49' W 001°06'0 0.2
2017-Oct-11 18:00N 50°49' W 001°06'5 9.9
2017-Oct-11 17:30N 50°44' W 001°03'918.0
2017-Oct-11 17:00N 50°36' W 000°56'11 0.7
2017-Oct-11 00:01N 50°26' W 000°48'714.6
2017-Oct-10 23:31N 50°33' W 000°52'714.6
2017-Oct-10 23:01N 50°39' W 000°57'713.5
2017-Oct-10 22:30N 50°44' W 001°04'4 8.7
2017-Oct-10 22:00N 50°49' W 001°06'0 0.0
2017-Oct-10 21:30N 50°49' W 001°06'0 0.0
2017-Oct-10 21:00N 50°49' W 001°06'0 0.0
2017-Oct-10 20:30N 50°49' W 001°06'0 0.2
2017-Oct-10 20:01N 50°49' W 001°06'4 7.9
2017-Oct-10 19:30N 50°45' W 001°05'714.4
2017-Oct-10 19:00N 50°38' W 000°60'918.9
2017-Oct-10 18:30N 50°30' W 001°07'6 0.7
2017-Oct-10 09:17N 50°24' W 001°09'414.6
2017-Oct-10 09:00N 50°28' W 001°07'714.7
2017-Oct-10 08:30N 50°35' W 001°02'714.8
2017-Oct-10 08:00N 50°42' W 000°58'713.5
2017-Oct-10 07:30N 50°46' W 001°06'2 4.9
2017-Oct-10 07:00N 50°49' W 001°06'0 0.0
2017-Oct-10 06:30N 50°49' W 001°06'0 0.0
2017-Oct-10 06:00N 50°49' W 001°06'0 0.6
2017-Oct-10 05:30N 50°49' W 001°06'510.1
2017-Oct-10 05:00N 50°44' W 001°04'713.9
2017-Oct-10 04:31N 50°37' W 000°59'714.6
2017-Oct-10 04:00N 50°31' W 000°53'3713.0
2017-Oct-10 01:12N 49°58' W 000°30'210.9
2017-Oct-10 00:59N 49°56' W 000°29'510.7
2017-Oct-10 00:29N 49°51' W 000°27'510.6
2017-Oct-10 00:00N 49°46' W 000°24'510.9
2017-Oct-09 23:30N 49°40' W 000°22'611.1
2017-Oct-09 23:00N 49°35' W 000°20'710.7
2017-Oct-09 22:19N 49°28' W 000°17'310.4
2017-Oct-09 22:00N 49°25' W 000°16'510.3
2017-Oct-09 21:30N 49°20' W 000°14'2 4.8
2017-Oct-09 21:00N 49°17' W 000°15'0 0.0
2017-Oct-09 20:30N 49°17' W 000°15'0 0.0
2017-Oct-09 20:00N 49°17' W 000°15'0 0.0
2017-Oct-09 19:30N 49°17' W 000°15'3 6.9
2017-Oct-09 19:01N 49°21' W 000°14'917.9
2017-Oct-09 18:30N 49°29' W 000°21'5518.2
2017-Oct-09 15:28N 50°22' W 000°46'919.9
2017-Oct-09 15:01N 50°30' W 000°52'1019.6
2017-Oct-09 14:30N 50°39' W 000°59'918.1
2017-Oct-09 14:01N 50°47' W 001°06'2 4.2
2017-Oct-09 13:30N 50°49' W 001°06'0 0.0
2017-Oct-09 13:00N 50°49' W 001°06'0 0.0
2017-Oct-09 12:30N 50°49' W 001°06'0 0.2
2017-Oct-09 12:00N 50°49' W 001°06'611.7
2017-Oct-09 11:31N 50°43' W 001°03'1020.3
2017-Oct-09 11:01N 50°34' W 000°56'  
Track history (hours):
 
Tides and Currents Weather Stations Pressure Air Temp Water Temp Dewpoint Dewpoint Depression Visibility Wind Speed Wind Dir Waves Ship Positions

Mont Saint Michel

Last reported at 2017-Oct-19 11:01 UTC. Time now 2017-Oct-19 11:11 UTC.
Position N 50°35' W 000°57'.

Length 173 m; beam 29 m.

Type: Ship. MMSI: 227023100.

Date/timePositionNaut miles runAvg speedWind from/ knotsBaromVisibWave heightAir tempDewpointWater temp
2017-Oct-19 11:01N 50°35' W 000°57'1020.5
2017-Oct-19 10:30N 50°25' W 000°51'1020.9
2017-Oct-19 10:01N 50°15' W 000°47'1020.2
2017-Oct-19 09:30N 50°06' W 000°40'1019.9
2017-Oct-19 09:00N 49°57' W 000°35'1020.0
2017-Oct-19 08:31N 49°47' W 000°30'1020.1
2017-Oct-19 08:00N 49°38' W 000°25'1020.0
2017-Oct-19 07:30N 49°29' W 000°19'1019.2
2017-Oct-19 07:00N 49°19' W 000°15'2 4.3
2017-Oct-19 06:30N 49°17' W 000°15'0 0.0
2017-Oct-19 06:00N 49°17' W 000°15'0 0.0
2017-Oct-19 05:30N 49°17' W 000°15'0 0.0
2017-Oct-19 05:00N 49°17' W 000°15'0 0.4
2017-Oct-19 04:30N 49°18' W 000°15'815.9
2017-Oct-19 04:00N 49°25' W 000°14'815.6
2017-Oct-19 03:31N 49°32' W 000°19'714.5
2017-Oct-19 03:00N 49°39' W 000°25'714.4
2017-Oct-19 02:31N 49°45' W 000°29'714.3
2017-Oct-19 02:00N 49°52' W 000°33'612.8
2017-Oct-19 01:30N 49°58' W 000°37'510.0
2017-Oct-19 01:00N 50°03' W 000°39'510.1
2017-Oct-19 00:30N 50°08' W 000°41'510.3
2017-Oct-19 00:00N 50°12' W 000°44'611.5
2017-Oct-18 23:30N 50°18' W 000°46'815.2
2017-Oct-18 23:00N 50°25' W 000°51'815.3
2017-Oct-18 22:30N 50°32' W 000°55'815.2
2017-Oct-18 22:00N 50°39' W 000°59'714.4
2017-Oct-18 21:31N 50°45' W 001°05'3 6.6
2017-Oct-18 21:00N 50°49' W 001°06'0 0.0
2017-Oct-18 20:30N 50°49' W 001°06'0 0.0
2017-Oct-18 20:01N 50°49' W 001°06'0 0.0
2017-Oct-18 19:30N 50°49' W 001°06'0 0.0
2017-Oct-18 19:00N 50°49' W 001°06'0 0.0
2017-Oct-18 18:31N 50°49' W 001°06'0 0.8
2017-Oct-18 18:00N 50°49' W 001°06'612.0
2017-Oct-18 17:31N 50°43' W 001°02'917.6
2017-Oct-18 17:01N 50°35' W 000°57'918.4
2017-Oct-18 16:30N 50°26' W 000°51'816.2
2017-Oct-18 16:01N 50°19' W 000°47'816.3
2017-Oct-18 15:30N 50°11' W 000°43'816.5
2017-Oct-18 15:01N 50°03' W 000°39'1716.9
2017-Oct-18 14:00N 49°48' W 000°30'917.1
2017-Oct-18 13:31N 49°40' W 000°25'1222.6
2017-Oct-18 13:00N 49°29' W 000°19'815.9
2017-Oct-18 12:30N 49°21' W 000°15'4 8.2
2017-Oct-18 12:00N 49°17' W 000°15'0 0.0
2017-Oct-18 11:30N 49°17' W 000°15'0 0.0
2017-Oct-18 11:00N 49°17' W 000°15'0 0.0
2017-Oct-18 10:30N 49°17' W 000°15'0 0.0
2017-Oct-18 10:00N 49°17' W 000°15'0 0.0
2017-Oct-18 09:30N 49°17' W 000°15'0 0.0
2017-Oct-18 09:00N 49°17' W 000°15'0 0.0
2017-Oct-18 08:30N 49°17' W 000°15'0 0.0
2017-Oct-18 08:00N 49°17' W 000°15'0 0.0
2017-Oct-18 07:30N 49°17' W 000°15'0 0.0
2017-Oct-18 07:00N 49°17' W 000°15'0 0.0
2017-Oct-18 06:30N 49°17' W 000°15'0 0.0
2017-Oct-18 06:00N 49°17' W 000°15'0 0.0
2017-Oct-18 05:30N 49°17' W 000°15'2 4.2
2017-Oct-18 05:00N 49°19' W 000°15'715.0
2017-Oct-18 04:30N 49°27' W 000°18'714.4
2017-Oct-18 04:01N 49°33' W 000°23'714.7
2017-Oct-18 03:30N 49°40' W 000°24'714.0
2017-Oct-18 03:00N 49°47' W 000°28'714.0
2017-Oct-18 02:30N 49°53' W 000°34'713.9
2017-Oct-18 02:00N 49°59' W 000°39'713.8
2017-Oct-18 01:30N 50°06' W 000°43'713.9
2017-Oct-18 01:00N 50°12' W 000°46'714.3
2017-Oct-18 00:30N 50°19' W 000°49'714.6
2017-Oct-18 00:00N 50°26' W 000°53'714.4
2017-Oct-17 23:30N 50°33' W 000°56'714.7
2017-Oct-17 23:00N 50°40' W 000°59'713.9
2017-Oct-17 22:30N 50°46' W 001°05'3 6.0
2017-Oct-17 22:00N 50°49' W 001°06'0 0.0
2017-Oct-17 21:30N 50°49' W 001°06'0 0.0
2017-Oct-17 21:00N 50°49' W 001°06'0 0.0
2017-Oct-17 20:30N 50°49' W 001°06'0 0.3
2017-Oct-17 20:00N 50°49' W 001°06'510.1
2017-Oct-17 19:31N 50°44' W 001°03'918.9
2017-Oct-17 19:01N 50°36' W 000°56'1019.2
2017-Oct-17 18:31N 50°27' W 000°50'1019.9
2017-Oct-17 18:00N 50°17' W 000°44'1019.3
2017-Oct-17 17:31N 50°08' W 000°40'1019.3
2017-Oct-17 17:00N 49°59' W 000°35'1019.6
2017-Oct-17 16:30N 49°50' W 000°32'1019.6
2017-Oct-17 16:01N 49°40' W 000°28'1019.7
2017-Oct-17 15:31N 49°31' W 000°22'1020.0
2017-Oct-17 15:01N 49°22' W 000°15'5 9.6
2017-Oct-17 14:30N 49°17' W 000°15'0 0.0
2017-Oct-17 14:00N 49°17' W 000°15'0 0.0
2017-Oct-17 13:30N 49°17' W 000°15'0 0.0
2017-Oct-17 13:00N 49°17' W 000°15'1 2.5
2017-Oct-17 12:30N 49°19' W 000°15'918.6
2017-Oct-17 12:00N 49°27' W 000°19'1019.9
2017-Oct-17 11:30N 49°36' W 000°26'1020.0
2017-Oct-17 11:01N 49°46' W 000°32'1020.0
2017-Oct-17 10:30N 49°55' W 000°37'1020.1
2017-Oct-17 10:00N 50°05' W 000°42'1120.2
2017-Oct-17 09:28N 50°15' W 000°47'920.3
2017-Oct-17 09:00N 50°24' W 000°51'1020.0
2017-Oct-17 08:30N 50°33' W 000°56'1019.1
2017-Oct-17 08:00N 50°42' W 001°01'714.0
2017-Oct-17 07:30N 50°49' W 001°07'1 1.3
2017-Oct-17 07:00N 50°49' W 001°06'0 0.0
2017-Oct-17 06:30N 50°49' W 001°06'0 0.0
2017-Oct-17 06:00N 50°49' W 001°06'1 1.0
2017-Oct-17 05:30N 50°49' W 001°07'612.9
2017-Oct-17 05:01N 50°43' W 001°01'917.6
2017-Oct-17 04:30N 50°35' W 000°55'918.5
2017-Oct-17 04:00N 50°26' W 000°50'611.8
2017-Oct-17 03:30N 50°21' W 000°47'510.2
2017-Oct-17 03:00N 50°16' W 000°47'510.4
2017-Oct-17 02:30N 50°11' W 000°46'510.5
2017-Oct-17 02:01N 50°06' W 000°44'510.8
2017-Oct-17 01:30N 50°00' W 000°42'611.0
2017-Oct-17 01:01N 49°55' W 000°40'611.2
2017-Oct-17 00:31N 49°50' W 000°37'611.3
2017-Oct-17 00:00N 49°44' W 000°36'611.6
2017-Oct-16 23:30N 49°39' W 000°31'611.8
2017-Oct-16 23:00N 49°34' W 000°26'611.7
2017-Oct-16 22:30N 49°29' W 000°21'612.0
2017-Oct-16 22:01N 49°24' W 000°17'611.8
2017-Oct-16 21:30N 49°18' W 000°15'1 1.9
2017-Oct-16 21:00N 49°17' W 000°15'0 0.0
2017-Oct-16 20:30N 49°17' W 000°15'0 0.0
2017-Oct-16 20:00N 49°17' W 000°15'0 0.0
2017-Oct-16 19:30N 49°17' W 000°15'4 7.8
2017-Oct-16 19:00N 49°21' W 000°14'1020.0
2017-Oct-16 18:31N 49°31' W 000°20'815.2
2017-Oct-16 18:00N 49°38' W 000°23'815.5
2017-Oct-16 17:30N 49°45' W 000°27'4319.0
2017-Oct-16 15:16N 50°25' W 000°51'520.1
2017-Oct-16 15:01N 50°30' W 000°54'1019.6
2017-Oct-16 14:31N 50°39' W 000°58'1110.6
2017-Oct-16 13:30N 50°49' W 001°06'0 0.0
2017-Oct-16 13:00N 50°49' W 001°06'0 0.0
2017-Oct-16 12:31N 50°49' W 001°06'0 0.2
2017-Oct-16 12:00N 50°49' W 001°06'5 9.3
2017-Oct-16 11:30N 50°44' W 001°04'918.1
2017-Oct-16 11:00N 50°36' W 000°58'1121.3
2017-Oct-16 10:30N 50°26' W 000°53'2221.8
2017-Oct-16 09:29N 50°05' W 000°40'1021.7
2017-Oct-16 09:00N 49°55' W 000°34'1121.4
2017-Oct-16 08:30N 49°45' W 000°29'1320.8
2017-Oct-16 07:54N 49°33' W 000°23'815.6
2017-Oct-16 07:24N 49°26' W 000°18'513.0
2017-Oct-16 07:00N 49°22' W 000°15'4 8.4
2017-Oct-16 06:30N 49°17' W 000°15'0 0.0
2017-Oct-16 06:00N 49°17' W 000°15'0 0.0
2017-Oct-16 05:30N 49°17' W 000°15'0 0.0
2017-Oct-16 05:00N 49°17' W 000°15'0 0.2
2017-Oct-16 04:30N 49°17' W 000°15'814.5
2017-Oct-16 03:57N 49°25' W 000°17'715.4
2017-Oct-16 03:30N 49°31' W 000°22'1114.8
2017-Oct-16 02:47N 49°41' W 000°27'414.5
2017-Oct-16 02:30N 49°45' W 000°29'1514.7
2017-Oct-16 01:28N 49°60' W 000°36'715.4
2017-Oct-16 00:59N 50°06' W 000°41'915.2
2017-Oct-16 00:22N 50°15' W 000°47'615.0
2017-Oct-15 23:58N 50°20' W 000°53'715.1
2017-Oct-15 23:31N 50°26' W 000°56'815.1
2017-Oct-15 23:01N 50°34' W 000°58'816.7
2017-Oct-15 22:31N 50°42' W 001°01'612.4
2017-Oct-15 22:00N 50°47' W 001°06'2 3.2
2017-Oct-15 21:31N 50°49' W 001°06'0 0.0
2017-Oct-15 21:01N 50°49' W 001°06'0 0.0
2017-Oct-15 20:30N 50°49' W 001°06'0 0.2
2017-Oct-15 20:01N 50°49' W 001°06'5 9.8
2017-Oct-15 19:30N 50°44' W 001°04'918.9
2017-Oct-15 19:00N 50°36' W 000°57'918.8
2017-Oct-15 18:30N 50°27' W 000°51'1019.1
2017-Oct-15 18:00N 50°18' W 000°46'918.8
2017-Oct-15 17:30N 50°09' W 000°42'918.7
2017-Oct-15 17:00N 49°60' W 000°37'918.4
2017-Oct-15 16:30N 49°52' W 000°31'918.6
2017-Oct-15 16:00N 49°43' W 000°27'1018.7
2017-Oct-15 15:30N 49°34' W 000°22'918.8
2017-Oct-15 15:00N 49°25' W 000°17'8 8.0
2017-Oct-15 14:00N 49°17' W 000°15'0 0.0
2017-Oct-15 13:30N 49°17' W 000°15'0 0.0
2017-Oct-15 13:00N 49°17' W 000°15'3 5.2
2017-Oct-15 12:30N 49°20' W 000°14'918.6
2017-Oct-15 12:00N 49°29' W 000°18'1019.5
2017-Oct-15 11:29N 49°38' W 000°25'1019.8
2017-Oct-15 11:00N 49°47' W 000°30'1019.6
2017-Oct-15 10:29N 49°56' W 000°36'1219.7
2017-Oct-15 09:52N 50°08' W 000°43'1220.1
2017-Oct-15 09:17N 50°19' W 000°48'520.3
2017-Oct-15 09:00N 50°24' W 000°51'1020.0
2017-Oct-15 08:30N 50°34' W 000°56'1019.3
2017-Oct-15 08:01N 50°43' W 001°02'713.1
2017-Oct-15 07:31N 50°48' W 001°07'1 1.5
2017-Oct-15 07:01N 50°49' W 001°06'0 0.0
2017-Oct-15 06:31N 50°49' W 001°06'0 0.0
2017-Oct-15 06:01N 50°49' W 001°06'0 0.7
2017-Oct-15 05:31N 50°49' W 001°06'612.5
2017-Oct-15 05:01N 50°43' W 001°02'917.1
2017-Oct-15 04:31N 50°36' W 000°55'510.4
2017-Oct-15 04:00N 50°31' W 000°51'510.4
2017-Oct-15 03:31N 50°26' W 000°48'611.3
2017-Oct-15 03:01N 50°21' W 000°46'611.2
2017-Oct-15 02:30N 50°16' W 000°43'611.2
2017-Oct-15 02:01N 50°10' W 000°40'711.4
2017-Oct-15 01:26N 50°04' W 000°37'511.2
2017-Oct-15 00:59N 49°59' W 000°35'611.2
2017-Oct-15 00:29N 49°54' W 000°32'511.1
2017-Oct-15 00:00N 49°49' W 000°29'511.0
2017-Oct-14 23:30N 49°44' W 000°27'911.1
2017-Oct-14 22:41N 49°35' W 000°22'411.1
2017-Oct-14 22:22N 49°32' W 000°21'411.7
2017-Oct-14 22:01N 49°28' W 000°18'611.4
2017-Oct-14 21:30N 49°23' W 000°15'510.4
2017-Oct-14 21:01N 49°17' W 000°15'0 0.0
2017-Oct-14 20:31N 49°17' W 000°15'0 0.0
2017-Oct-14 20:01N 49°17' W 000°15'0 0.0
2017-Oct-14 19:30N 49°17' W 000°15'3 5.6
2017-Oct-14 19:00N 49°20' W 000°14'918.1
2017-Oct-14 18:30N 49°29' W 000°17'918.5
2017-Oct-14 18:00N 49°38' W 000°22'919.0
2017-Oct-14 17:30N 49°46' W 000°28'918.8
2017-Oct-14 17:01N 49°55' W 000°33'919.0
2017-Oct-14 16:31N 50°04' W 000°38'918.8
2017-Oct-14 16:01N 50°13' W 000°42'918.6
2017-Oct-14 15:30N 50°22' W 000°46'918.5
2017-Oct-14 15:00N 50°31' W 000°51'918.8
2017-Oct-14 14:30N 50°39' W 000°58'816.7
2017-Oct-14 14:00N 50°46' W 001°05'3 5.3
2017-Oct-14 13:30N 50°49' W 001°06'0 0.0
2017-Oct-14 13:00N 50°49' W 001°06'0 0.0
2017-Oct-14 12:30N 50°49' W 001°06'0 0.8
2017-Oct-14 12:01N 50°49' W 001°06'612.5
2017-Oct-14 11:31N 50°43' W 001°01'917.5
2017-Oct-14 11:01N 50°35' W 000°57'1019.3
2017-Oct-14 10:30N 50°26' W 000°53'1018.9
2017-Oct-14 10:00N 50°17' W 000°48'3219.4
2017-Oct-14 08:20N 49°47' W 000°27'819.4
2017-Oct-14 07:57N 49°40' W 000°23'1119.2
2017-Oct-14 07:23N 49°30' W 000°18'719.2
2017-Oct-14 07:01N 49°23' W 000°16'611.2
2017-Oct-14 06:30N 49°17' W 000°15'0 0.0
2017-Oct-14 06:00N 49°17' W 000°15'0 0.0
2017-Oct-14 05:31N 49°17' W 000°15'0 0.0
2017-Oct-14 05:00N 49°17' W 000°15'0 0.2
2017-Oct-14 04:30N 49°17' W 000°15'814.0
2017-Oct-14 03:56N 49°25' W 000°17'715.1
2017-Oct-14 03:29N 49°32' W 000°21'714.5
2017-Oct-14 03:01N 49°38' W 000°25'1814.9
2017-Oct-14 01:47N 49°55' W 000°34'515.5
2017-Oct-14 01:29N 49°59' W 000°37'915.3
2017-Oct-14 00:56N 50°07' W 000°41'915.3
2017-Oct-14 00:22N 50°15' W 000°47'615.6
2017-Oct-14 00:00N 50°20' W 000°50'816.0
2017-Oct-13 23:30N 50°28' W 000°55'817.0
2017-Oct-13 23:01N 50°36' W 000°59'815.7
2017-Oct-13 22:31N 50°43' W 001°02'611.5
2017-Oct-13 22:00N 50°48' W 001°07'1 1.6
2017-Oct-13 21:30N 50°49' W 001°06'0 0.0
2017-Oct-13 21:01N 50°49' W 001°06'0 0.0
2017-Oct-13 20:30N 50°49' W 001°06'0 0.2
2017-Oct-13 20:00N 50°49' W 001°06'4 8.9
2017-Oct-13 19:31N 50°44' W 001°04'918.2
2017-Oct-13 19:01N 50°37' W 000°57'1019.5
2017-Oct-13 18:30N 50°27' W 000°51'2719.3
2017-Oct-13 17:06N 50°02' W 000°36'319.0
2017-Oct-13 16:56N 49°59' W 000°35'919.0
2017-Oct-13 16:29N 49°51' W 000°30'918.8
2017-Oct-13 16:00N 49°42' W 000°26'1018.9
2017-Oct-13 15:28N 49°33' W 000°21'918.8
2017-Oct-13 15:00N 49°25' W 000°17'714.6
2017-Oct-13 14:30N 49°17' W 000°15'0 0.1
2017-Oct-13 14:00N 49°17' W 000°15'0 0.0
2017-Oct-13 13:30N 49°17' W 000°15'0 0.0
2017-Oct-13 13:00N 49°17' W 000°15'3 5.7
2017-Oct-13 12:30N 49°20' W 000°14'1019.8
2017-Oct-13 12:01N 49°29' W 000°19'1019.2
2017-Oct-13 11:30N 49°39' W 000°25'1618.7
2017-Oct-13 10:39N 49°53' W 000°36'318.6
2017-Oct-13 10:29N 49°55' W 000°39'1020.2
2017-Oct-13 10:00N 50°04' W 000°46'1119.7
2017-Oct-13 09:27N 50°14' W 000°50'920.5
2017-Oct-13 08:59N 50°24' W 000°51'920.0
2017-Oct-13 08:31N 50°33' W 000°56'1019.4
2017-Oct-13 08:01N 50°42' W 001°01'714.5
2017-Oct-13 07:30N 50°48' W 001°07'1 1.8
2017-Oct-13 07:00N 50°49' W 001°06'0 0.0
2017-Oct-13 06:30N 50°49' W 001°06'0 0.0
2017-Oct-13 06:00N 50°49' W 001°06'0 0.3
2017-Oct-13 05:30N 50°49' W 001°06'510.4
2017-Oct-13 05:00N 50°44' W 001°03'918.5
2017-Oct-13 04:30N 50°36' W 000°56'815.9
2017-Oct-13 04:00N 50°29' W 000°51'4111.3
2017-Oct-13 00:21N 49°49' W 000°30'411.2
2017-Oct-12 23:59N 49°45' W 000°29'511.4
2017-Oct-12 23:30N 49°40' W 000°26'811.6
2017-Oct-12 22:50N 49°33' W 000°23'512.0
2017-Oct-12 22:23N 49°28' W 000°20'411.5
2017-Oct-12 22:00N 49°24' W 000°17'511.0
2017-Oct-12 21:31N 49°18' W 000°15'1 2.3
2017-Oct-12 21:00N 49°17' W 000°15'0 0.0
2017-Oct-12 20:30N 49°17' W 000°15'0 0.0
2017-Oct-12 20:01N 49°17' W 000°15'0 0.1
2017-Oct-12 19:30N 49°17' W 000°15'814.9
2017-Oct-12 19:00N 49°25' W 000°16'918.1
2017-Oct-12 18:30N 49°33' W 000°23'5218.5
2017-Oct-12 15:42N 50°22' W 000°46'419.4
2017-Oct-12 15:30N 50°26' W 000°48'1020.2
2017-Oct-12 15:00N 50°35' W 000°54'1019.1
2017-Oct-12 14:30N 50°43' W 001°03'612.1
2017-Oct-12 14:00N 50°49' W 001°06'0 0.7
2017-Oct-12 13:30N 50°49' W 001°06'0 0.0
2017-Oct-12 13:00N 50°49' W 001°06'0 0.0
2017-Oct-12 12:30N 50°49' W 001°06'1 1.6
2017-Oct-12 12:00N 50°48' W 001°07'713.8
2017-Oct-12 11:31N 50°43' W 000°60'918.3
2017-Oct-12 11:00N 50°34' W 000°55'5619.9
2017-Oct-12 08:12N 49°41' W 000°26'420.7
2017-Oct-12 08:00N 49°38' W 000°23'1020.3
2017-Oct-12 07:30N 49°28' W 000°19'919.3
2017-Oct-12 07:00N 49°19' W 000°15'2 3.4
2017-Oct-12 06:30N 49°17' W 000°15'0 0.0
2017-Oct-12 06:00N 49°17' W 000°15'0 0.0
2017-Oct-12 05:30N 49°17' W 000°15'0 0.0
2017-Oct-12 05:00N 49°17' W 000°15'0 0.3
2017-Oct-12 04:30N 49°17' W 000°15'815.1
2017-Oct-12 04:00N 49°25' W 000°17'1115.6
2017-Oct-12 03:17N 49°36' W 000°21'4213.1
2017-Oct-12 00:04N 50°15' W 000°45'213.8
2017-Oct-11 23:58N 50°16' W 000°46'613.9
2017-Oct-11 23:30N 50°22' W 000°48'815.0
2017-Oct-11 23:00N 50°29' W 000°54'714.4
2017-Oct-11 22:30N 50°36' W 000°57'713.8
2017-Oct-11 22:00N 50°43' W 000°59'612.1
2017-Oct-11 21:30N 50°47' W 001°06'2 4.0
2017-Oct-11 21:00N 50°49' W 001°06'0 0.0
2017-Oct-11 20:30N 50°49' W 001°06'0 0.0
2017-Oct-11 20:00N 50°49' W 001°06'0 0.0
2017-Oct-11 19:30N 50°49' W 001°06'0 0.0
2017-Oct-11 19:00N 50°49' W 001°06'0 0.0
2017-Oct-11 18:30N 50°49' W 001°06'0 0.2
2017-Oct-11 18:00N 50°49' W 001°06'5 9.9
2017-Oct-11 17:30N 50°44' W 001°03'918.0
2017-Oct-11 17:00N 50°36' W 000°56'11 0.7
2017-Oct-11 00:01N 50°26' W 000°48'714.6
2017-Oct-10 23:31N 50°33' W 000°52'714.6
2017-Oct-10 23:01N 50°39' W 000°57'713.5
2017-Oct-10 22:30N 50°44' W 001°04'4 8.7
2017-Oct-10 22:00N 50°49' W 001°06'0 0.0
2017-Oct-10 21:30N 50°49' W 001°06'0 0.0
2017-Oct-10 21:00N 50°49' W 001°06'0 0.0
2017-Oct-10 20:30N 50°49' W 001°06'0 0.2
2017-Oct-10 20:01N 50°49' W 001°06'4 7.9
2017-Oct-10 19:30N 50°45' W 001°05'714.4
2017-Oct-10 19:00N 50°38' W 000°60'918.9
2017-Oct-10 18:30N 50°30' W 001°07'6 0.7
2017-Oct-10 09:17N 50°24' W 001°09'414.6
2017-Oct-10 09:00N 50°28' W 001°07'714.7
2017-Oct-10 08:30N 50°35' W 001°02'714.8
2017-Oct-10 08:00N 50°42' W 000°58'713.5
2017-Oct-10 07:30N 50°46' W 001°06'2 4.9
2017-Oct-10 07:00N 50°49' W 001°06'0 0.0
2017-Oct-10 06:30N 50°49' W 001°06'0 0.0
2017-Oct-10 06:00N 50°49' W 001°06'0 0.6
2017-Oct-10 05:30N 50°49' W 001°06'510.1
2017-Oct-10 05:00N 50°44' W 001°04'713.9
2017-Oct-10 04:31N 50°37' W 000°59'714.6
2017-Oct-10 04:00N 50°31' W 000°53'3713.0
2017-Oct-10 01:12N 49°58' W 000°30'210.9
2017-Oct-10 00:59N 49°56' W 000°29'510.7
2017-Oct-10 00:29N 49°51' W 000°27'510.6
2017-Oct-10 00:00N 49°46' W 000°24'510.9
2017-Oct-09 23:30N 49°40' W 000°22'611.1
2017-Oct-09 23:00N 49°35' W 000°20'710.7
2017-Oct-09 22:19N 49°28' W 000°17'310.4
2017-Oct-09 22:00N 49°25' W 000°16'510.3
2017-Oct-09 21:30N 49°20' W 000°14'2 4.8
2017-Oct-09 21:00N 49°17' W 000°15'0 0.0
2017-Oct-09 20:30N 49°17' W 000°15'0 0.0
2017-Oct-09 20:00N 49°17' W 000°15'0 0.0
2017-Oct-09 19:30N 49°17' W 000°15'3 6.9
2017-Oct-09 19:01N 49°21' W 000°14'917.9
2017-Oct-09 18:30N 49°29' W 000°21'5518.2
2017-Oct-09 15:28N 50°22' W 000°46'919.9
2017-Oct-09 15:01N 50°30' W 000°52'1019.6
2017-Oct-09 14:30N 50°39' W 000°59'918.1
2017-Oct-09 14:01N 50°47' W 001°06'2 4.2
2017-Oct-09 13:30N 50°49' W 001°06'0 0.0
2017-Oct-09 13:00N 50°49' W 001°06'0 0.0
2017-Oct-09 12:30N 50°49' W 001°06'0 0.2
2017-Oct-09 12:00N 50°49' W 001°06'611.7
2017-Oct-09 11:31N 50°43' W 001°03'1020.3
2017-Oct-09 11:01N 50°34' W 000°56'  

Dump ship's entire track history